createdAt,value
2022-10-25T00:01:57.478Z,81.00
2022-10-25T00:04:24.178Z,80.70
2022-10-25T00:06:50.790Z,81.10
2022-10-25T00:09:17.449Z,81.20
2022-10-25T00:11:44.108Z,81.30
2022-10-25T00:14:15.825Z,81.00
2022-10-25T00:16:42.507Z,81.20
2022-10-25T00:19:09.200Z,81.10
2022-10-25T00:21:35.824Z,81.40
2022-10-25T00:24:03.322Z,81.30
2022-10-25T00:26:29.979Z,81.30
2022-10-25T00:28:56.696Z,81.50
2022-10-25T00:31:24.200Z,81.40
2022-10-25T00:33:50.864Z,80.90
2022-10-25T00:36:20.714Z,80.60
2022-10-25T00:38:48.195Z,81.10
2022-10-25T00:41:17.790Z,81.10
2022-10-25T00:43:47.718Z,80.90
2022-10-25T00:46:25.695Z,81.00
2022-10-25T00:49:03.431Z,80.30
2022-10-25T00:51:43.787Z,81.10
2022-10-25T00:54:12.904Z,80.80
2022-10-25T00:56:42.660Z,80.40
2022-10-25T00:59:12.363Z,80.90
2022-10-25T01:01:39.317Z,80.60
2022-10-25T01:04:11.360Z,80.60
2022-10-25T01:06:38.882Z,80.60
2022-10-25T01:09:07.843Z,80.50
2022-10-25T01:11:36.088Z,80.60
2022-10-25T01:14:02.767Z,80.60
2022-10-25T01:16:56.043Z,80.70
2022-10-25T01:19:58.017Z,81.80
2022-10-25T01:22:35.469Z,81.80
2022-10-25T01:25:14.080Z,82.60
2022-10-25T01:27:59.466Z,82.00
2022-10-25T01:30:50.513Z,81.40
2022-10-25T01:33:27.470Z,81.80
2022-10-25T01:36:06.163Z,81.70
2022-10-25T01:38:41.839Z,81.90
2022-10-25T01:41:35.379Z,83.00
2022-10-25T01:44:27.007Z,82.90
2022-10-25T01:47:01.478Z,82.50
2022-10-25T01:49:43.451Z,82.40
2022-10-25T01:52:10.335Z,82.60
2022-10-25T01:54:37.057Z,83.10
2022-10-25T01:57:08.900Z,82.50
2022-10-25T01:59:50.635Z,82.10
2022-10-25T02:02:34.082Z,82.50
2022-10-25T02:05:08.216Z,82.60
2022-10-25T02:07:41.614Z,83.40
2022-10-25T02:10:10.261Z,82.50
2022-10-25T02:13:19.971Z,83.00
2022-10-25T02:16:03.057Z,82.70
2022-10-25T02:18:33.897Z,82.60
2022-10-25T02:21:02.879Z,82.50
2022-10-25T02:23:31.996Z,82.80
2022-10-25T02:25:59.296Z,82.60
2022-10-25T02:28:32.560Z,83.30
2022-10-25T02:31:00.384Z,82.70
2022-10-25T02:33:29.875Z,82.50
2022-10-25T02:36:22.372Z,82.70
2022-10-25T02:38:51.495Z,82.10
2022-10-25T02:45:18.155Z,83.10
2022-10-25T02:47:45.313Z,83.20
2022-10-25T02:50:12.721Z,83.10
2022-10-25T02:52:39.318Z,82.70
2022-10-25T02:55:06.534Z,82.60
2022-10-25T02:57:37.899Z,83.00
2022-10-25T03:00:06.544Z,82.80
2022-10-25T03:02:33.247Z,82.50
2022-10-25T03:05:00.007Z,82.30
2022-10-25T03:07:26.683Z,83.10
2022-10-25T03:09:53.331Z,82.80
2022-10-25T03:12:19.935Z,82.60
2022-10-25T03:14:46.548Z,82.30
2022-10-25T03:17:13.177Z,82.50
2022-10-25T03:19:39.763Z,82.60
2022-10-25T03:22:06.378Z,82.30
2022-10-25T03:24:32.986Z,82.60
2022-10-25T03:27:00.462Z,83.10
2022-10-25T03:29:27.158Z,82.80
2022-10-25T03:31:54.032Z,83.10
2022-10-25T03:34:20.688Z,83.10
2022-10-25T03:36:47.312Z,83.10
2022-10-25T03:39:14.024Z,83.00
2022-10-25T03:41:40.636Z,82.30
2022-10-25T03:44:07.241Z,82.30
2022-10-25T03:46:33.934Z,82.90
2022-10-25T03:49:00.532Z,82.70
2022-10-25T03:51:27.191Z,82.80
2022-10-25T03:53:53.809Z,82.60
2022-10-25T03:56:20.441Z,82.40
2022-10-25T03:58:47.029Z,82.20
2022-10-25T04:01:13.852Z,82.20
2022-10-25T04:03:40.591Z,82.00
2022-10-25T04:06:07.430Z,82.00
2022-10-25T04:08:34.197Z,81.90
2022-10-25T04:11:00.918Z,82.20
2022-10-25T04:13:28.079Z,82.00
2022-10-25T04:15:54.729Z,82.20
2022-10-25T04:18:21.534Z,82.40
2022-10-25T04:20:48.162Z,82.10
2022-10-25T04:23:14.801Z,81.80
2022-10-25T04:25:41.871Z,81.80
2022-10-25T04:28:08.517Z,82.00
2022-10-25T04:30:37.969Z,81.80
2022-10-25T04:33:05.743Z,82.10
2022-10-25T04:35:32.382Z,81.90
2022-10-25T04:37:59.124Z,81.90
2022-10-25T04:40:25.892Z,82.00
2022-10-25T04:42:52.610Z,82.10
2022-10-25T04:45:19.268Z,82.20
2022-10-25T04:47:46.030Z,83.10
2022-10-25T04:50:12.804Z,83.40
2022-10-25T04:52:39.599Z,83.20
2022-10-25T04:55:06.456Z,83.70
2022-10-25T04:57:33.177Z,83.60
2022-10-25T04:59:59.825Z,83.60
2022-10-25T05:02:26.543Z,83.20
2022-10-25T05:04:53.251Z,83.10
2022-10-25T05:07:21.023Z,82.80
2022-10-25T05:09:48.489Z,83.70
2022-10-25T05:12:15.779Z,83.60
2022-10-25T05:14:42.473Z,83.50
2022-10-25T05:17:09.474Z,83.00
2022-10-25T05:19:36.140Z,82.90
2022-10-25T05:22:04.202Z,82.70
2022-10-25T05:24:30.881Z,83.10
2022-10-25T05:26:57.573Z,83.20
2022-10-25T05:29:24.279Z,83.60
2022-10-25T05:31:50.929Z,83.10
2022-10-25T05:34:17.630Z,83.00
2022-10-25T05:36:44.441Z,82.60
2022-10-25T05:39:11.086Z,83.00
2022-10-25T05:41:37.740Z,82.70
2022-10-25T05:44:05.659Z,82.50
2022-10-25T05:46:32.393Z,82.60
2022-10-25T05:48:59.894Z,82.40
2022-10-25T05:51:36.280Z,82.30
2022-10-25T05:54:10.027Z,82.50
2022-10-25T05:56:37.664Z,83.20
2022-10-25T05:59:11.574Z,82.90
2022-10-25T06:01:40.784Z,82.60
2022-10-25T06:04:08.442Z,83.10
2022-10-25T06:06:36.284Z,83.80
2022-10-25T06:09:03.875Z,83.20
2022-10-25T06:11:31.026Z,84.30
2022-10-25T06:13:58.132Z,83.20
2022-10-25T06:16:25.192Z,84.50
2022-10-25T06:18:53.890Z,84.00
2022-10-25T06:21:23.608Z,83.30
2022-10-25T06:23:50.305Z,83.60
2022-10-25T06:26:19.440Z,83.40
2022-10-25T06:28:46.578Z,83.10
2022-10-25T06:31:16.208Z,83.50
2022-10-25T06:33:43.222Z,83.00
2022-10-25T06:36:16.644Z,82.90
2022-10-25T06:38:44.586Z,83.10
2022-10-25T06:41:16.623Z,83.30
2022-10-25T06:43:43.275Z,83.50
2022-10-25T06:46:14.761Z,83.40
2022-10-25T06:48:41.543Z,83.10
2022-10-25T06:51:11.705Z,83.10
2022-10-25T06:53:38.681Z,83.20
2022-10-25T06:56:10.584Z,83.60
2022-10-25T06:58:41.163Z,83.50
2022-10-25T07:01:13.602Z,83.90
2022-10-25T07:03:41.953Z,84.40
2022-10-25T07:06:11.464Z,83.40
2022-10-25T07:08:40.167Z,83.40
2022-10-25T07:11:08.586Z,83.50
2022-10-25T07:13:35.603Z,83.50
2022-10-25T07:16:07.282Z,83.20
2022-10-25T07:18:35.310Z,83.10
2022-10-25T07:21:13.503Z,83.10
2022-10-25T07:23:43.844Z,83.20
2022-10-25T07:26:13.914Z,82.90
2022-10-25T07:28:40.904Z,83.70
2022-10-25T07:31:07.882Z,83.50
2022-10-25T07:33:34.652Z,83.50
2022-10-25T07:36:16.666Z,83.30
2022-10-25T07:38:43.490Z,83.60
2022-10-25T07:41:10.331Z,83.40
2022-10-25T07:43:37.293Z,83.80
2022-10-25T07:46:04.675Z,84.20
2022-10-25T07:48:31.416Z,84.00
2022-10-25T07:50:58.236Z,84.10
2022-10-25T07:53:24.935Z,83.90
2022-10-25T07:55:53.016Z,84.20
2022-10-25T07:58:19.848Z,84.60
2022-10-25T08:00:47.097Z,84.30
2022-10-25T08:03:15.528Z,84.50
2022-10-25T08:05:46.350Z,84.50
2022-10-25T08:08:13.808Z,84.50
2022-10-25T08:10:42.349Z,84.60
2022-10-25T08:13:09.059Z,84.70
2022-10-25T08:15:36.373Z,84.30
2022-10-25T08:18:04.087Z,84.70
2022-10-25T08:20:49.675Z,84.40
2022-10-25T08:23:17.493Z,84.50
2022-10-25T08:25:44.247Z,84.40
2022-10-25T08:28:11.150Z,84.70
2022-10-25T08:30:37.839Z,84.70
2022-10-25T08:33:06.479Z,84.70
2022-10-25T08:35:36.033Z,84.30
2022-10-25T08:38:04.782Z,84.60
2022-10-25T08:40:54.182Z,84.20
2022-10-25T08:43:23.606Z,84.40
2022-10-25T08:45:55.839Z,83.80
2022-10-25T08:48:28.151Z,84.30
2022-10-25T08:51:03.028Z,84.00
2022-10-25T08:53:38.348Z,83.70
2022-10-25T08:56:16.174Z,83.70
2022-10-25T08:58:49.917Z,83.70
2022-10-25T09:01:29.501Z,84.10
2022-10-25T09:03:56.586Z,83.60
2022-10-25T09:06:41.399Z,83.60
2022-10-25T09:09:42.529Z,83.60
2022-10-25T09:12:22.573Z,83.10
2022-10-25T09:15:19.235Z,83.40
2022-10-25T09:17:51.316Z,83.50
2022-10-25T09:20:23.908Z,83.30
2022-10-25T09:23:08.433Z,83.60
2022-10-25T09:25:47.138Z,83.50
2022-10-25T09:28:30.470Z,83.60
2022-10-25T09:30:59.029Z,83.50
2022-10-25T09:33:30.522Z,82.80
2022-10-25T09:35:58.846Z,82.70
2022-10-25T09:38:34.453Z,82.90
2022-10-25T09:41:09.989Z,82.60
2022-10-25T09:43:45.764Z,82.50
2022-10-25T09:46:43.959Z,82.50
2022-10-25T09:49:10.575Z,82.20
2022-10-25T09:51:54.033Z,81.90
2022-10-25T09:54:39.953Z,81.60
2022-10-25T09:57:06.599Z,81.40
2022-10-25T09:59:33.903Z,81.50
2022-10-25T10:02:00.793Z,81.20
2022-10-25T10:04:38.996Z,81.10
2022-10-25T10:07:24.502Z,80.80
2022-10-25T10:09:55.436Z,80.50
2022-10-25T10:13:00.836Z,80.50
2022-10-25T10:15:51.372Z,80.30
2022-10-25T10:18:32.709Z,80.50
2022-10-25T10:21:11.309Z,80.30
2022-10-25T10:23:45.649Z,80.10
2022-10-25T10:26:20.442Z,80.00
2022-10-25T10:28:50.572Z,79.70
2022-10-25T10:31:19.204Z,79.60
2022-10-25T10:33:51.080Z,79.60
2022-10-25T10:36:19.921Z,79.60
2022-10-25T10:38:46.743Z,79.40
2022-10-25T10:41:29.622Z,79.60
2022-10-25T10:44:13.203Z,79.50
2022-10-25T10:46:47.413Z,79.30
2022-10-25T10:49:15.998Z,79.20
2022-10-25T10:51:45.623Z,79.10
2022-10-25T10:54:23.882Z,79.20
2022-10-25T10:57:04.423Z,79.60
2022-10-25T10:59:54.465Z,78.90
2022-10-25T11:02:23.560Z,78.90
2022-10-25T11:04:55.746Z,78.60
2022-10-25T11:07:32.656Z,78.40
2022-10-25T11:10:35.260Z,78.40
2022-10-25T11:13:06.068Z,78.50
2022-10-25T11:15:55.447Z,78.30
2022-10-25T11:18:35.284Z,78.40
2022-10-25T11:21:39.623Z,78.30
2022-10-25T11:24:51.194Z,78.10
2022-10-25T11:27:25.810Z,77.90
2022-10-25T11:30:04.656Z,78.20
2022-10-25T11:33:13.387Z,78.30
2022-10-25T11:35:56.074Z,78.40
2022-10-25T11:38:55.089Z,78.40
2022-10-25T11:41:52.064Z,78.60
2022-10-25T11:44:45.776Z,78.20
2022-10-25T11:47:48.248Z,78.10
2022-10-25T11:50:52.937Z,78.20
2022-10-25T11:53:58.586Z,78.00
2022-10-25T11:56:31.062Z,78.30
2022-10-25T11:59:19.402Z,78.40
2022-10-25T12:01:58.425Z,78.20
2022-10-25T12:04:48.118Z,78.00
2022-10-25T12:07:33.995Z,77.80
2022-10-25T12:10:30.172Z,77.50
2022-10-25T12:13:03.011Z,77.00
2022-10-25T12:15:52.092Z,76.80
2022-10-25T12:18:47.395Z,76.60
2022-10-25T12:21:29.860Z,76.80
2022-10-25T12:23:57.564Z,76.80
2022-10-25T12:26:36.675Z,76.40
2022-10-25T12:29:10.988Z,76.20
2022-10-25T12:31:42.963Z,77.00
2022-10-25T12:34:15.575Z,77.00
2022-10-25T12:36:45.185Z,76.60
2022-10-25T12:39:21.649Z,76.20
2022-10-25T12:41:58.619Z,75.70
2022-10-25T12:44:37.262Z,75.30
2022-10-25T12:47:22.800Z,75.10
2022-10-25T12:50:07.735Z,74.20
2022-10-25T12:52:40.852Z,74.80
2022-10-25T12:55:38.209Z,74.30
2022-10-25T12:58:17.040Z,73.90
2022-10-25T13:00:55.562Z,72.70
2022-10-25T13:03:56.624Z,73.40
2022-10-25T13:06:45.203Z,73.20
2022-10-25T13:09:15.431Z,72.90
2022-10-25T13:12:01.275Z,72.60
2022-10-25T13:14:30.855Z,72.10
2022-10-25T13:17:16.491Z,72.00
2022-10-25T13:19:55.806Z,72.30
2022-10-25T13:22:35.698Z,72.70
2022-10-25T13:25:15.903Z,72.00
2022-10-25T13:28:10.618Z,72.00
2022-10-25T13:30:37.361Z,71.30
2022-10-25T13:33:19.212Z,71.70
2022-10-25T13:35:48.925Z,72.40
2022-10-25T13:38:27.447Z,72.00
2022-10-25T13:41:10.046Z,72.80
2022-10-25T13:43:53.661Z,71.60
2022-10-25T13:46:30.759Z,71.40
2022-10-25T13:48:58.252Z,72.00
2022-10-25T13:51:24.985Z,72.50
2022-10-25T13:53:53.587Z,72.00
2022-10-25T13:56:22.933Z,70.80
2022-10-25T13:58:54.390Z,70.80
2022-10-25T14:01:21.422Z,71.10
2022-10-25T14:04:03.426Z,71.20
2022-10-25T14:06:34.558Z,71.80
2022-10-25T14:09:09.293Z,71.00
2022-10-25T14:11:47.265Z,71.20
2022-10-25T14:14:28.267Z,71.50
2022-10-25T14:16:55.453Z,70.90
2022-10-25T14:19:26.932Z,71.00
2022-10-25T14:21:55.213Z,70.60
2022-10-25T14:24:22.520Z,70.70
2022-10-25T14:26:56.278Z,70.80
2022-10-25T14:29:25.546Z,70.80
2022-10-25T14:31:53.327Z,70.40
2022-10-25T14:34:30.014Z,69.90
2022-10-25T14:36:58.361Z,70.20
2022-10-25T14:39:28.035Z,70.40
2022-10-25T14:42:02.760Z,69.70
2022-10-25T14:44:31.936Z,69.90
2022-10-25T14:46:59.964Z,70.10
2022-10-25T14:49:27.469Z,70.10
2022-10-25T14:51:59.492Z,69.20
2022-10-25T14:54:36.596Z,69.60
2022-10-25T14:57:08.620Z,69.60
2022-10-25T14:59:43.946Z,69.40
2022-10-25T15:02:16.223Z,69.10
2022-10-25T15:04:46.797Z,69.20
2022-10-25T15:07:36.357Z,69.00
2022-10-25T15:12:36.216Z,68.60
2022-10-25T15:15:44.600Z,67.70
2022-10-25T15:18:34.781Z,67.40
2022-10-25T15:21:14.810Z,67.50
2022-10-25T15:23:43.409Z,67.80
2022-10-25T15:26:39.388Z,67.40
2022-10-25T15:29:06.356Z,67.30
2022-10-25T15:31:33.022Z,67.20
2022-10-25T15:34:04.539Z,67.00
2022-10-25T15:36:33.432Z,67.10
2022-10-25T15:39:18.214Z,67.10
2022-10-25T15:41:44.899Z,67.30
2022-10-25T15:44:11.513Z,67.40
2022-10-25T15:46:38.312Z,67.70
2022-10-25T15:49:09.574Z,67.40
2022-10-25T15:51:43.333Z,67.30
2022-10-25T15:54:18.439Z,67.40
2022-10-25T15:56:45.625Z,66.90
2022-10-25T15:59:13.432Z,67.60
2022-10-25T16:01:47.052Z,66.90
2022-10-25T16:04:18.517Z,66.30
2022-10-25T16:06:45.977Z,66.20
2022-10-25T16:09:12.702Z,66.00
2022-10-25T16:11:44.860Z,66.20
2022-10-25T16:14:23.409Z,66.00
2022-10-25T16:16:50.333Z,66.20
2022-10-25T16:19:19.150Z,66.60
2022-10-25T16:21:46.262Z,67.20
2022-10-25T16:24:13.590Z,67.70
2022-10-25T16:26:50.067Z,67.70
2022-10-25T16:29:21.946Z,67.80
2022-10-25T16:31:48.573Z,68.00
2022-10-25T16:34:17.281Z,67.60
2022-10-25T16:36:44.943Z,67.60
2022-10-25T16:39:12.008Z,68.10
2022-10-25T16:41:40.215Z,68.20
2022-10-25T16:44:06.934Z,68.50
2022-10-25T16:46:33.597Z,68.60
2022-10-25T16:49:02.058Z,69.20
2022-10-25T16:51:29.225Z,68.70
2022-10-25T16:53:57.184Z,68.90
2022-10-25T16:56:23.854Z,68.80
2022-10-25T16:58:50.641Z,68.80
2022-10-25T17:01:21.543Z,69.00
2022-10-25T17:03:52.441Z,69.30
2022-10-25T17:09:07.095Z,69.40
2022-10-25T17:11:33.698Z,69.50
2022-10-25T17:14:00.302Z,69.50
2022-10-25T17:16:29.020Z,69.50
2022-10-25T17:18:56.407Z,69.60
2022-10-25T17:21:23.601Z,69.70
2022-10-25T17:23:50.239Z,69.80
2022-10-25T17:26:16.931Z,69.90
2022-10-25T17:28:44.508Z,69.90
2022-10-25T17:31:13.158Z,69.80
2022-10-25T17:33:40.589Z,69.60
2022-10-25T17:36:10.569Z,69.60
2022-10-25T17:38:37.493Z,69.70
2022-10-25T17:41:04.518Z,69.70
2022-10-25T17:43:31.182Z,69.60
2022-10-25T17:46:03.074Z,69.70
2022-10-25T17:48:29.849Z,69.80
2022-10-25T17:51:05.158Z,69.60
2022-10-25T17:56:11.226Z,69.80
2022-10-25T17:58:37.973Z,69.80
2022-10-25T18:01:05.611Z,70.00
2022-10-25T18:03:32.920Z,70.00
2022-10-25T18:06:03.920Z,70.00
2022-10-25T18:08:30.603Z,70.00
2022-10-25T18:11:07.264Z,70.00
2022-10-25T18:13:33.982Z,69.90
2022-10-25T18:16:03.529Z,69.80
2022-10-25T18:18:30.742Z,70.00
2022-10-25T18:21:09.063Z,70.20
2022-10-25T18:23:36.383Z,70.10
2022-10-25T18:26:04.389Z,70.10
2022-10-25T18:28:35.613Z,70.00
2022-10-25T18:31:09.014Z,69.90
2022-10-25T18:33:37.706Z,70.20
2022-10-25T18:36:15.041Z,70.80
2022-10-25T18:38:42.198Z,71.30
2022-10-25T18:41:11.252Z,71.00
2022-10-25T18:43:37.926Z,70.80
2022-10-25T18:46:05.211Z,70.60
2022-10-25T18:48:31.972Z,70.60
2022-10-25T18:51:10.910Z,70.60
2022-10-25T18:53:40.888Z,70.50
2022-10-25T18:56:13.030Z,70.40
2022-10-25T18:58:41.069Z,70.60
2022-10-25T19:01:08.701Z,71.10
2022-10-25T19:03:36.345Z,71.10
2022-10-25T19:06:03.839Z,71.70
2022-10-25T19:08:30.529Z,71.30
2022-10-25T19:10:57.337Z,71.30
2022-10-25T19:13:23.988Z,71.20
2022-10-25T19:15:50.658Z,71.10
2022-10-25T19:18:17.367Z,71.30
2022-10-25T19:20:46.448Z,72.00
2022-10-25T19:23:13.320Z,71.90
2022-10-25T19:25:40.192Z,71.60
2022-10-25T19:28:07.323Z,71.50
2022-10-25T19:30:37.725Z,72.00
2022-10-25T19:33:05.441Z,71.70
2022-10-25T19:35:32.832Z,71.70
2022-10-25T19:37:59.518Z,71.70
2022-10-25T19:40:26.261Z,72.50
2022-10-25T19:42:53.461Z,72.30
2022-10-25T19:45:20.308Z,72.20
2022-10-25T19:47:47.333Z,72.50
2022-10-25T19:50:14.459Z,72.30
2022-10-25T19:52:41.246Z,72.40
2022-10-25T19:55:08.229Z,72.30
2022-10-25T19:57:35.548Z,72.20
2022-10-25T20:00:08.641Z,72.90
2022-10-25T20:02:38.529Z,72.70
2022-10-25T20:05:05.759Z,73.10
2022-10-25T20:07:32.445Z,73.60
2022-10-25T20:09:59.089Z,73.60
2022-10-25T20:12:25.764Z,74.60
2022-10-25T20:14:52.410Z,73.90
2022-10-25T20:17:19.034Z,74.30
2022-10-25T20:19:45.706Z,74.40
2022-10-25T20:22:12.391Z,73.90
2022-10-25T20:24:39.013Z,73.50
2022-10-25T20:27:06.624Z,73.50
2022-10-25T20:29:33.312Z,73.40
2022-10-25T20:31:59.947Z,73.30
2022-10-25T20:34:26.810Z,73.20
2022-10-25T20:36:53.870Z,73.20
2022-10-25T20:39:20.497Z,73.20
2022-10-25T20:41:47.256Z,73.10
2022-10-25T20:44:14.732Z,73.00
2022-10-25T20:46:41.532Z,73.50
2022-10-25T20:49:08.245Z,74.80
2022-10-25T20:51:35.241Z,74.30
2022-10-25T20:54:05.184Z,74.00
2022-10-25T20:56:31.972Z,73.80
2022-10-25T20:58:58.603Z,73.60
2022-10-25T21:01:25.414Z,73.60
2022-10-25T21:03:53.940Z,73.60
2022-10-25T21:06:20.645Z,73.50
2022-10-25T21:08:47.312Z,73.40
2022-10-25T21:11:14.194Z,73.40
2022-10-25T21:13:41.123Z,73.40
2022-10-25T21:16:10.586Z,73.40
2022-10-25T21:18:37.759Z,73.70
2022-10-25T21:21:07.275Z,73.70
2022-10-25T21:23:34.170Z,74.40
2022-10-25T21:26:02.951Z,73.60
2022-10-25T21:28:34.857Z,73.60
2022-10-25T21:31:07.042Z,73.50
2022-10-25T21:33:33.689Z,73.60
2022-10-25T21:36:05.523Z,73.60
2022-10-25T21:38:32.755Z,73.60
2022-10-25T21:41:17.305Z,73.50
2022-10-25T21:43:46.623Z,73.70
2022-10-25T21:46:14.848Z,73.70
2022-10-25T21:48:42.036Z,73.80
2022-10-25T21:51:08.707Z,73.90
2022-10-25T21:53:36.382Z,74.20
2022-10-25T21:56:18.463Z,74.20
2022-10-25T21:58:47.136Z,74.40
2022-10-25T22:01:20.216Z,74.40
2022-10-25T22:03:46.949Z,74.30
2022-10-25T22:06:15.880Z,74.20
2022-10-25T22:08:43.023Z,74.20
2022-10-25T22:11:15.829Z,74.20
2022-10-25T22:13:42.736Z,74.10
2022-10-25T22:16:19.272Z,74.40
2022-10-25T22:18:54.833Z,74.20
2022-10-25T22:21:21.878Z,74.30
2022-10-25T22:23:48.680Z,74.50
2022-10-25T22:26:17.396Z,74.70
2022-10-25T22:28:44.061Z,74.80
2022-10-25T22:31:15.803Z,74.90
2022-10-25T22:33:43.422Z,75.00
2022-10-25T22:36:14.249Z,74.70
2022-10-25T22:38:41.288Z,74.90
2022-10-25T22:41:11.193Z,74.90
2022-10-25T22:43:39.277Z,75.20
2022-10-25T22:46:10.538Z,75.50
2022-10-25T22:48:38.858Z,75.80
2022-10-25T22:51:06.280Z,75.60
2022-10-25T22:53:35.592Z,75.80
2022-10-25T22:56:05.277Z,75.70
2022-10-25T22:58:33.333Z,75.90
2022-10-25T23:01:06.048Z,75.90
2022-10-25T23:03:33.456Z,76.40
2022-10-25T23:06:03.415Z,76.10
2022-10-25T23:08:34.352Z,76.10
2022-10-25T23:11:05.779Z,76.10
2022-10-25T23:13:34.154Z,76.00
2022-10-25T23:16:02.222Z,76.10
2022-10-25T23:18:29.201Z,76.00
2022-10-25T23:20:57.625Z,75.80
2022-10-25T23:23:25.307Z,75.80
2022-10-25T23:25:52.997Z,75.70
2022-10-25T23:28:20.148Z,75.80
2022-10-25T23:30:46.864Z,75.70
2022-10-25T23:33:13.877Z,76.00
2022-10-25T23:35:41.850Z,75.80
2022-10-25T23:38:11.667Z,75.80
2022-10-25T23:40:38.731Z,75.90
2022-10-25T23:43:05.413Z,75.80
2022-10-25T23:45:32.239Z,76.00
2022-10-25T23:47:59.097Z,76.00
2022-10-25T23:50:25.686Z,76.10
2022-10-25T23:52:52.450Z,76.00
2022-10-25T23:55:19.126Z,76.20
2022-10-25T23:57:45.789Z,76.30
